Albion, Oklahoma
Current Conditions -  °F | °C
As of 2:15 PM on Thursday 29 Jan 2015 (Local Time) from KRKR Reporting Station
Broken Clouds Broken Clouds  
Wind Chill: 10°   Ceiling: 3700
Heat Index: 10°   Visibility: 10mi
Dew Point:   Wind: 15mph
Humidity: 50%   Direction: 330°NNW
Pressure: 30.34"   Gusts: 20mph
Location:  34.66°N, 95.1°W
Report Text: KRKR 292015Z AUTO 33013G17KT 10SM BKN037 10/00 A3034 RMK AO2 T01020001
Loading
Personal Weather Stations






























Interactive Weather Map New forecast layout! Learn more

10-Day Weather Forecast

Advertisements
Track Severe Weather on mobile